Time;durP1;ratioP1;P1;durP2;ratioP2;P2;SDS_P1;SDS_P2;PMS_P1;PMS_P2;Temp;Humidity;BMP_temperature;BMP_pressure;BME280_temperature;BME280_humidity;BME280_pressure;Samples;Min_cycle;Max_cycle;Signal;HPM_P1;HPM_P2
2023/10/11 00:01:01;;;;;;;11.43;5.75;;;;;;;16.73;77.52;101382.25;5109901;28;20023;-83
2023/10/11 00:05:53;;;;;;;9.88;5.10;;;;;;;16.70;77.89;101386.03;5109500;28;20392;-82
2023/10/11 00:08:19;;;;;;;10.43;5.40;;;;;;;16.65;77.75;101382.94;5109155;28;20043;-82
2023/10/11 00:10:53;;;;;;;8.57;5.20;;;;;;;16.63;77.46;101389.38;5108965;28;20447;-82
2023/10/11 00:13:22;;;;;;;7.20;5.45;;;;;;;16.60;77.36;101382.50;5110040;28;20067;-82
2023/10/11 00:15:50;;;;;;;7.70;5.00;;;;;;;16.59;77.68;101383.50;5090219;28;20023;-81
2023/10/11 00:18:19;;;;;;;15.18;5.93;;;;;;;16.56;77.23;101383.78;5109988;28;20032;-82
2023/10/11 00:20:51;;;;;;;7.63;5.13;;;;;;;16.54;77.40;101386.56;5109375;28;20024;-82
2023/10/11 00:23:21;;;;;;;9.15;5.10;;;;;;;16.56;76.46;101383.78;5108966;28;20143;-82
2023/10/11 00:25:49;;;;;;;9.00;5.10;;;;;;;16.51;76.78;101381.53;5089537;28;20050;-82
2023/10/11 00:28:14;;;;;;;8.48;5.00;;;;;;;16.50;77.42;101379.00;5106444;28;20019;-82
2023/10/11 00:30:40;;;;;;;13.30;5.45;;;;;;;16.46;77.62;101377.63;5107962;28;20038;-82
2023/10/11 00:33:07;;;;;;;17.27;5.95;;;;;;;16.42;77.95;101385.03;5109833;28;20103;-82
2023/10/11 00:35:33;;;;;;;9.77;5.60;;;;;;;16.41;78.07;101374.50;5110157;28;20035;-82
2023/10/11 00:38:00;;;;;;;9.50;5.43;;;;;;;16.37;78.20;101379.25;5108232;28;20485;-82
2023/10/11 00:40:32;;;;;;;10.32;5.15;;;;;;;16.37;78.21;101379.25;5091599;28;20068;-82
2023/10/11 00:42:57;;;;;;;11.90;5.53;;;;;;;16.35;78.33;101378.56;5092662;27;20076;-81
2023/10/11 00:45:30;;;;;;;12.18;5.68;;;;;;;16.34;77.99;101365.41;5112534;27;20051;-82
2023/10/11 00:47:56;;;;;;;8.93;5.38;;;;;;;16.32;78.18;101372.69;5093087;28;20576;-82
2023/10/11 00:50:23;;;;;;;9.60;5.40;;;;;;;16.28;78.47;101374.78;5112626;28;20035;-81
2023/10/11 00:52:50;;;;;;;9.35;5.68;;;;;;;16.25;78.84;101375.91;5104933;28;20024;-82
2023/10/11 00:55:21;;;;;;;10.82;5.45;;;;;;;16.22;79.07;101376.19;5111116;27;20030;-82
2023/10/11 00:57:48;;;;;;;9.10;5.87;;;;;;;16.20;78.80;101367.50;5114123;27;20027;-82
2023/10/11 01:00:16;;;;;;;9.07;5.43;;;;;;;16.15;79.48;101367.09;5112478;27;20304;-82
2023/10/11 01:02:45;;;;;;;10.40;5.68;;;;;;;16.12;79.67;101371.81;5111284;28;20019;-82
2023/10/11 01:05:11;;;;;;;8.52;5.45;;;;;;;16.11;80.28;101372.81;5093831;28;20020;-82
2023/10/11 01:07:38;;;;;;;8.98;5.25;;;;;;;16.09;79.58;101378.25;5112537;28;20027;-82
2023/10/11 01:10:07;;;;;;;9.85;6.03;;;;;;;16.05;80.22;101376.84;5095452;28;20031;-82
2023/10/11 01:12:33;;;;;;;13.25;5.93;;;;;;;16.01;80.49;101366.59;5112288;27;20035;-82
2023/10/11 01:14:59;;;;;;;11.57;5.82;;;;;;;15.97;81.16;101372.19;5110334;27;20034;-82
2023/10/11 01:17:31;;;;;;;10.85;6.10;;;;;;;15.93;81.21;101375.25;5113196;28;20106;-82
2023/10/11 01:19:57;;;;;;;10.80;6.50;;;;;;;15.89;81.04;101364.06;5111128;27;20051;-81
2023/10/11 01:22:22;;;;;;;12.45;5.75;;;;;;;15.86;81.25;101364.34;5112114;28;20067;-81
2023/10/11 01:24:48;;;;;;;11.13;6.57;;;;;;;15.83;81.64;101363.78;5110279;28;20023;-81
2023/10/11 01:27:14;;;;;;;8.88;6.00;;;;;;;15.78;82.02;101366.00;5111339;27;20059;-81
2023/10/11 01:29:42;;;;;;;13.80;5.65;;;;;;;15.74;82.59;101370.72;5112533;27;20028;-82
2023/10/11 01:32:08;;;;;;;13.35;5.88;;;;;;;15.72;82.09;101369.19;5093949;28;20059;-81
2023/10/11 01:34:33;;;;;;;11.32;5.75;;;;;;;15.69;81.93;101359.69;5112239;28;20047;-82
2023/10/11 01:36:59;;;;;;;9.40;5.35;;;;;;;15.66;82.90;101358.13;5114444;27;20043;-81
2023/10/11 01:39:25;;;;;;;12.82;5.78;;;;;;;15.63;82.81;101352.28;5133164;27;20023;-81
2023/10/11 01:41:54;;;;;;;9.10;5.72;;;;;;;15.57;82.94;101350.94;5121589;27;20574;-80
2023/10/11 01:44:22;;;;;;;11.23;5.93;;;;;;;15.54;83.53;101359.16;5112515;27;20106;-80
2023/10/11 01:46:48;;;;;;;10.45;5.78;;;;;;;15.50;83.61;101347.13;5085466;28;20127;-82
2023/10/11 01:49:14;;;;;;;12.95;6.10;;;;;;;15.49;83.79;101342.81;5106858;28;20617;-80
2023/10/11 01:51:46;;;;;;;12.80;6.15;;;;;;;15.45;83.77;101346.69;5111066;28;20027;-80
2023/10/11 01:54:11;;;;;;;11.60;5.53;;;;;;;15.42;84.00;101348.78;5111604;28;20051;-80
2023/10/11 01:56:38;;;;;;;10.80;5.93;;;;;;;15.35;84.18;101343.16;5111798;28;20504;-80
2023/10/11 01:59:04;;;;;;;11.10;5.68;;;;;;;15.35;84.66;101343.16;5112374;28;20019;-80
2023/10/11 02:01:38;;;;;;;8.02;5.38;;;;;;;15.29;84.94;101339.22;5096743;28;20076;-81
2023/10/11 02:04:10;;;;;;;11.82;6.07;;;;;;;15.27;85.12;101332.38;5113067;27;20392;-81
2023/10/11 02:06:40;;;;;;;8.13;5.60;;;;;;;15.24;85.97;101328.19;5109761;28;20015;-80
2023/10/11 02:09:05;;;;;;;8.40;5.20;;;;;;;15.22;85.75;101316.88;5111359;28;20521;-81
2023/10/11 02:11:30;;;;;;;11.20;5.97;;;;;;;15.19;85.68;101316.28;5094409;28;20023;-80
2023/10/11 02:13:57;;;;;;;11.88;6.05;;;;;;;15.13;85.81;101314.16;5111075;27;20378;-81
2023/10/11 02:16:24;;;;;;;10.63;5.93;;;;;;;15.13;85.94;101316.81;5111086;27;20032;-81
2023/10/11 02:18:58;;;;;;;10.88;6.30;;;;;;;15.10;nan;101307.31;5111050;27;20080;-81
2023/10/11 02:21:29;;;;;;;10.98;5.97;;;;;;;15.08;86.71;101311.06;5111160;27;20488;-81
2023/10/11 02:23:56;;;;;;;12.57;6.47;;;;;;;15.07;86.58;101301.44;5092469;28;20138;-82
2023/10/11 02:26:28;;;;;;;11.02;6.57;;;;;;;15.01;86.72;101300.16;5093052;27;20443;-82
2023/10/11 02:28:53;;;;;;;11.70;6.38;;;;;;;15.00;87.09;101301.13;5108938;28;20102;-81
2023/10/11 02:31:24;;;;;;;9.90;5.88;;;;;;;14.96;87.32;101289.94;5109707;27;20118;-82
2023/10/11 02:33:56;;;;;;;11.55;6.15;;;;;;;14.95;87.68;101298.88;5093357;27;20035;-80
2023/10/11 02:36:22;;;;;;;11.30;6.55;;;;;;;14.92;87.40;101293.81;5100614;27;20034;-82
2023/10/11 02:38:47;;;;;;;9.88;6.25;;;;;;;14.91;87.90;101300.09;5092674;27;20473;-81
2023/10/11 02:41:14;;;;;;;8.00;6.15;;;;;;;14.89;87.79;101298.56;5092981;28;20027;-82
2023/10/11 02:43:48;;;;;;;12.15;6.30;;;;;;;14.87;88.06;101296.03;5109567;27;20680;-81
2023/10/11 02:46:17;;;;;;;12.38;6.72;;;;;;;14.87;88.16;101301.34;5111306;28;20118;-81
2023/10/11 02:48:47;;;;;;;9.30;6.20;;;;;;;14.83;88.11;101296.44;5092507;27;20019;-81
2023/10/11 02:51:17;;;;;;;9.38;6.25;;;;;;;14.82;88.43;101298.22;5108540;27;20381;-82
2023/10/11 02:53:45;;;;;;;9.88;6.38;;;;;;;14.82;88.82;101292.94;5110716;28;20020;-81
2023/10/11 02:56:12;;;;;;;11.23;6.43;;;;;;;14.80;88.59;101289.53;5110926;28;20027;-81
2023/10/11 02:58:40;;;;;;;11.77;6.63;;;;;;;14.79;89.22;101290.50;5099666;27;20159;-81
2023/10/11 03:01:17;;;;;;;10.38;7.00;;;;;;;14.76;88.99;101298.72;5087798;27;20477;-81
2023/10/11 03:03:42;;;;;;;11.80;6.88;;;;;;;14.73;89.21;101299.00;5113812;27;20023;-81
2023/10/11 03:06:08;;;;;;;8.73;6.15;;;;;;;14.72;89.46;101297.31;5091411;28;20032;-81
2023/10/11 03:08:44;;;;;;;14.38;6.68;;;;;;;14.68;90.41;101295.88;5110663;28;20043;-81
2023/10/11 03:11:15;;;;;;;17.35;6.47;;;;;;;14.68;89.66;101295.88;5089577;28;20036;-81
2023/10/11 03:13:41;;;;;;;11.90;6.50;;;;;;;14.66;90.63;101287.22;5105997;27;20011;-81
2023/10/11 03:16:12;;;;;;;11.85;7.00;;;;;;;14.65;90.10;101282.91;5110504;27;20027;-81
2023/10/11 03:18:39;;;;;;;12.50;6.50;;;;;;;14.63;90.35;101276.91;5109829;28;20110;-82
2023/10/11 03:21:33;;;;;;;10.55;6.88;;;;;;;14.61;90.74;101269.09;5110495;28;20029;-81
2023/10/11 03:24:04;;;;;;;11.07;6.70;;;;;;;14.60;90.89;101277.16;5110481;28;20019;-81
2023/10/11 03:28:58;;;;;;;9.55;6.93;;;;;;;14.58;91.38;101273.81;5110532;28;20031;-82
2023/10/11 03:31:28;;;;;;;9.70;7.20;;;;;;;14.58;91.98;101281.75;5091088;28;21132;-81
2023/10/11 03:33:57;;;;;;;10.27;6.82;;;;;;;14.55;92.06;101274.06;5108700;28;20027;-81
2023/10/11 03:36:30;;;;;;;11.68;7.35;;;;;;;14.54;92.36;101272.38;5092200;28;20366;-81
2023/10/11 03:38:57;;;;;;;11.38;6.78;;;;;;;14.51;92.00;101278.78;5112893;28;20023;-81
2023/10/11 03:41:29;;;;;;;12.95;7.03;;;;;;;14.49;92.70;101275.41;5109828;28;20384;-82
2023/10/11 03:44:00;;;;;;;11.82;7.07;;;;;;;14.49;92.87;101269.28;5091890;28;20478;-82
2023/10/11 03:46:28;;;;;;;9.77;7.20;;;;;;;14.47;93.26;101271.22;5109342;28;20044;-82
2023/10/11 03:49:03;;;;;;;13.93;7.25;;;;;;;14.48;93.26;101278.19;5091826;28;20080;-81
2023/10/11 03:51:29;;;;;;;10.43;7.07;;;;;;;14.46;93.67;101269.53;5091961;28;20474;-82
2023/10/11 03:53:54;;;;;;;11.48;7.25;;;;;;;14.45;93.79;101267.84;5107130;28;20609;-82
2023/10/11 03:56:20;;;;;;;12.55;7.63;;;;;;;14.43;94.05;101269.81;5092018;28;20035;-83
2023/10/11 03:58:45;;;;;;;10.60;7.10;;;;;;;14.43;94.24;101261.84;5109541;28;20028;-82
2023/10/11 04:03:40;;;;;;;12.55;7.50;;;;;;;14.40;94.76;101260.25;5109111;28;20445;-81
2023/10/11 04:06:15;;;;;;;11.77;7.30;;;;;;;14.37;95.03;101269.28;5110103;28;20020;-81
2023/10/11 04:09:02;;;;;;;14.05;7.75;;;;;;;14.38;95.22;101255.06;5109084;28;20488;-82
2023/10/11 04:11:55;;;;;;;13.43;7.57;;;;;;;14.38;95.38;101265.66;5089955;28;20032;-81
2023/10/11 04:14:24;;;;;;;12.77;7.43;;;;;;;14.37;95.38;101252.56;5110780;28;20040;-81
2023/10/11 04:16:52;;;;;;;17.15;7.88;;;;;;;14.35;95.64;101247.38;5107200;28;20024;-81
2023/10/11 04:19:21;;;;;;;10.80;7.60;;;;;;;14.35;96.00;101235.97;5102072;27;20019;-81
2023/10/11 04:24:19;;;;;;;11.05;7.57;;;;;;;14.35;96.44;101238.63;5114264;27;20028;-81
2023/10/11 04:26:53;;;;;;;12.30;7.72;;;;;;;14.34;96.37;101245.72;5113509;27;20016;-81
2023/10/11 04:29:19;;;;;;;12.82;7.70;;;;;;;14.36;96.41;101249.06;5113103;27;20034;-81
2023/10/11 04:32:04;;;;;;;11.50;7.80;;;;;;;14.33;96.59;101238.75;5113667;28;20023;-82
2023/10/11 04:34:32;;;;;;;12.13;7.90;;;;;;;14.35;96.53;101236.81;5094154;28;20039;-81
2023/10/11 04:37:04;;;;;;;13.20;8.38;;;;;;;14.35;96.79;101242.09;5112371;27;20020;-81
2023/10/11 04:39:34;;;;;;;10.87;8.13;;;;;;;14.36;96.75;101243.78;5112015;27;20035;-83
2023/10/11 04:42:00;;;;;;;15.40;8.50;;;;;;;14.37;96.56;101245.47;5094625;28;20500;-82
2023/10/11 04:44:54;;;;;;;13.43;8.43;;;;;;;14.37;97.19;101244.63;5095003;28;20110;-82
2023/10/11 04:47:17;;;;;;;12.50;8.60;;;;;;;14.37;97.02;101239.31;5116175;27;20036;-82
2023/10/11 04:49:44;;;;;;;15.82;8.57;;;;;;;14.39;96.80;101258.56;5111834;27;20028;-82
2023/10/11 04:52:23;;;;;;;13.98;8.57;;;;;;;14.39;97.08;101246.16;5095385;28;20065;-82
2023/10/11 04:54:54;;;;;;;11.93;8.38;;;;;;;14.40;96.96;101237.25;5094885;28;20077;-82
2023/10/11 04:57:40;;;;;;;11.23;8.20;;;;;;;14.40;96.89;101245.19;5110924;27;20055;-82
2023/10/11 05:00:08;;;;;;;16.70;8.93;;;;;;;14.42;97.10;101258.34;5113595;28;20458;-82
2023/10/11 05:02:37;;;;;;;13.57;8.30;;;;;;;14.40;97.37;101257.59;5095001;27;20027;-82
2023/10/11 05:05:10;;;;;;;13.18;8.25;;;;;;;14.40;96.96;101255.78;5112993;28;20098;-82
2023/10/11 05:07:42;;;;;;;13.07;8.30;;;;;;;14.40;97.52;101260.25;5113245;28;20491;-82
2023/10/11 05:13:05;;;;;;;15.18;8.35;;;;;;;14.40;97.42;101254.94;5112422;27;20489;-82
2023/10/11 05:15:42;;;;;;;15.43;8.70;;;;;;;14.39;97.95;101254.09;5114162;27;20012;-81
2023/10/11 05:18:08;;;;;;;14.80;8.23;;;;;;;14.39;97.97;101256.75;5109171;27;20031;-81
2023/10/11 05:23:11;;;;;;;16.65;8.95;;;;;;;14.41;98.31;101257.50;5113061;28;20035;-82
2023/10/11 05:25:56;;;;;;;11.70;8.25;;;;;;;14.41;98.33;101260.16;5111469;28;20015;-81
2023/10/11 05:31:01;;;;;;;13.27;9.20;;;;;;;14.35;99.06;101265.91;5112151;28;20093;-82
2023/10/11 05:33:59;;;;;;;14.23;9.02;;;;;;;14.38;98.99;101267.47;5111917;27;20019;-81
2023/10/11 05:36:49;;;;;;;12.80;8.65;;;;;;;14.39;99.38;101274.44;5093211;27;20106;-82
2023/10/11 05:52:55;;;;;;;16.75;9.52;;;;;;;14.32;100.00;101266.19;5110110;27;20055;-81
2023/10/11 05:55:22;;;;;;;13.35;9.25;;;;;;;14.31;100.00;101267.16;5115958;27;20030;-81
2023/10/11 05:57:48;;;;;;;14.55;9.55;;;;;;;14.33;100.00;101269.66;5104723;28;20465;-82
2023/10/11 06:00:25;;;;;;;12.18;9.05;;;;;;;14.31;100.00;101277.75;5114375;27;20102;-82
2023/10/11 06:02:52;;;;;;;12.57;8.77;;;;;;;14.30;100.00;101276.06;5111030;28;20106;-82
2023/10/11 06:05:19;;;;;;;14.45;9.05;;;;;;;14.32;100.00;101279.41;5094691;28;20350;-82
2023/10/11 06:07:44;;;;;;;15.40;9.68;;;;;;;14.33;100.00;101280.25;5095623;27;20038;-82
2023/10/11 06:10:13;;;;;;;12.63;9.00;;;;;;;14.33;100.00;101274.97;5093604;28;20028;-83
2023/10/11 06:12:39;;;;;;;14.48;9.15;;;;;;;14.33;100.00;101275.81;5096316;27;20015;-82
2023/10/11 06:15:15;;;;;;;15.00;9.27;;;;;;;14.35;100.00;101262.44;5099362;28;20055;-82
2023/10/11 06:17:48;;;;;;;18.10;9.65;;;;;;;14.36;100.00;101261.47;5111712;28;20126;-82
2023/10/11 06:20:23;;;;;;;16.52;9.30;;;;;;;14.36;100.00;101264.94;5095903;28;20035;-81
2023/10/11 06:22:51;;;;;;;13.20;9.35;;;;;;;14.38;100.00;101263.03;5119144;27;20030;-81
2023/10/11 06:25:23;;;;;;;17.17;10.10;;;;;;;14.43;100.00;101268.00;5099228;28;20387;-82
2023/10/11 06:30:24;;;;;;;15.25;9.07;;;;;;;14.47;100.00;101269.41;5115099;27;20036;-79
2023/10/11 06:32:50;;;;;;;14.73;9.88;;;;;;;14.49;100.00;101263.97;5110677;27;20431;-80
2023/10/11 06:35:37;;;;;;;13.98;9.52;;;;;;;14.53;100.00;101270.69;5094038;27;20395;-79
2023/10/11 06:38:07;;;;;;;15.57;9.65;;;;;;;14.54;100.00;101275.03;5111521;27;20032;-79
2023/10/11 06:43:18;;;;;;;13.73;9.23;;;;;;;14.58;100.00;101265.84;5081385;27;20036;-79
2023/10/11 06:45:44;;;;;;;17.17;9.70;;;;;;;14.61;100.00;101273.53;5110777;27;20408;-79
2023/10/11 06:48:13;;;;;;;12.35;9.75;;;;;;;14.63;100.00;101276.91;5113039;27;20022;-79
2023/10/11 06:50:39;;;;;;;13.52;9.43;;;;;;;14.65;99.96;101269.66;5113644;27;20456;-79
2023/10/11 06:53:09;;;;;;;12.85;9.43;;;;;;;14.68;100.00;101270.25;5111386;28;20043;-81
2023/10/11 06:55:36;;;;;;;15.82;9.35;;;;;;;14.71;100.00;101271.78;5111348;28;20048;-80
2023/10/11 06:58:09;;;;;;;18.08;10.45;;;;;;;14.75;99.88;101278.50;5111205;28;20506;-83
2023/10/11 07:00:38;;;;;;;;;;;;;;;14.84;99.23;101276.91;5111309;28;20069;-82
2023/10/11 07:03:09;;;;;;;15.82;9.70;;;;;;;14.84;99.17;101279.56;5098250;28;19912;-81
2023/10/11 07:05:45;;;;;;;13.57;9.48;;;;;;;14.86;99.74;101272.31;5109908;28;20108;-82
2023/10/11 07:08:17;;;;;;;15.48;10.18;;;;;;;14.90;99.38;101287.81;5112475;27;20028;-82
2023/10/11 07:10:46;;;;;;;14.65;9.52;;;;;;;14.92;99.37;101285.88;5091976;28;20047;-82
2023/10/11 07:13:13;;;;;;;15.88;9.90;;;;;;;14.97;98.82;101288.97;5109633;27;20027;-80
2023/10/11 07:15:46;;;;;;;17.20;10.98;;;;;;;15.03;98.42;101300.84;5109810;27;20046;-82
2023/10/11 07:18:25;;;;;;;17.55;9.40;;;;;;;15.09;98.95;101310.09;5094054;28;20051;-83
2023/10/11 07:20:58;;;;;;;12.75;9.77;;;;;;;15.13;98.80;101311.50;5072067;28;20020;-79
2023/10/11 07:23:26;;;;;;;13.60;9.32;;;;;;;15.17;98.08;101323.53;5072644;28;20070;-80
2023/10/11 07:28:37;;;;;;;12.65;9.23;;;;;;;15.30;98.00;101334.78;5090299;28;20123;-80
2023/10/11 07:31:05;;;;;;;13.15;9.20;;;;;;;15.34;97.67;101341.50;5090805;28;20103;-80
2023/10/11 07:33:31;;;;;;;14.30;9.20;;;;;;;15.39;97.14;101335.78;5093655;28;20034;-80
2023/10/11 07:35:59;;;;;;;14.18;9.15;;;;;;;15.43;97.34;101329.25;5121137;27;20047;-82
2023/10/11 07:38:33;;;;;;;16.05;9.07;;;;;;;15.50;97.25;101330.38;5128220;27;20114;-85
2023/10/11 07:41:04;;;;;;;15.00;9.13;;;;;;;15.60;96.09;101328.63;5107041;28;20095;-83
2023/10/11 07:43:32;;;;;;;13.93;9.20;;;;;;;15.65;95.71;101324.63;5090576;28;20439;-80
2023/10/11 07:45:59;;;;;;;16.13;9.30;;;;;;;15.72;96.98;101322.28;5088623;28;20040;-83
2023/10/11 07:48:29;;;;;;;16.00;9.43;;;;;;;15.78;95.80;101318.22;5072087;28;20085;-83
2023/10/11 07:50:55;;;;;;;12.35;9.18;;;;;;;15.86;95.91;101321.88;5089788;28;20036;-82
2023/10/11 07:53:20;;;;;;;16.50;9.57;;;;;;;15.95;95.86;101320.22;5093733;28;20366;-85
2023/10/11 07:55:45;;;;;;;16.33;9.23;;;;;;;16.03;95.18;101322.22;5093907;28;20020;-80
2023/10/11 07:58:11;;;;;;;16.15;9.60;;;;;;;16.14;95.49;101317.63;5085460;28;20031;-81
2023/10/11 08:00:43;;;;;;;14.07;9.65;;;;;;;16.23;95.22;101323.91;5128782;27;20102;-79
2023/10/11 08:03:09;;;;;;;18.05;9.52;;;;;;;16.38;94.64;101326.97;5096968;28;20377;-80
2023/10/11 08:05:46;;;;;;;18.00;9.70;;;;;;;16.48;94.11;101325.19;5114857;28;20024;-80
2023/10/11 08:08:15;;;;;;;15.93;9.98;;;;;;;16.61;92.76;101312.44;5114389;28;20437;-82
2023/10/11 08:10:45;;;;;;;19.88;9.43;;;;;;;16.72;92.95;101314.97;5095866;28;20027;-82
2023/10/11 08:13:26;;;;;;;14.63;9.52;;;;;;;16.78;93.38;101322.38;5114831;28;20049;-82
2023/10/11 08:16:05;;;;;;;19.92;9.73;;;;;;;16.79;92.85;101316.09;5095121;28;20481;-82
2023/10/11 08:18:32;;;;;;;17.25;9.30;;;;;;;16.85;92.82;101318.19;5104961;28;20032;-82
2023/10/11 08:20:58;;;;;;;14.38;9.73;;;;;;;16.86;92.70;101319.88;5110039;27;20023;-82
2023/10/11 08:23:29;;;;;;;17.33;9.30;;;;;;;16.88;92.80;101328.53;5101218;28;20366;-80
2023/10/11 08:25:56;;;;;;;12.85;9.27;;;;;;;16.93;92.64;101330.78;5113727;28;20342;-79
2023/10/11 08:28:28;;;;;;;17.45;9.52;;;;;;;16.90;92.26;101331.91;5113743;28;20022;-81
2023/10/11 08:30:57;;;;;;;15.93;9.30;;;;;;;16.89;92.65;101346.16;5113692;28;20055;-80
2023/10/11 08:33:30;;;;;;;14.38;9.20;;;;;;;16.94;92.78;101344.91;5114382;28;20027;-81
2023/10/11 08:35:55;;;;;;;17.40;9.55;;;;;;;16.99;92.68;101332.84;5112773;28;20036;-81
2023/10/11 08:38:24;;;;;;;18.02;8.88;;;;;;;17.09;92.35;101336.31;5102912;27;20027;-80
2023/10/11 08:40:50;;;;;;;15.98;9.35;;;;;;;17.19;91.75;101339.78;5115524;27;20062;-80
2023/10/11 08:43:16;;;;;;;15.00;8.93;;;;;;;17.28;92.01;101332.78;5118951;27;20065;-83
2023/10/11 08:45:49;;;;;;;15.73;9.52;;;;;;;17.31;91.93;101336.97;5090922;28;20036;-83
2023/10/11 08:48:15;;;;;;;15.65;9.40;;;;;;;17.46;91.39;101340.84;5093546;28;20091;-85
2023/10/11 08:50:51;;;;;;;14.70;9.25;;;;;;;17.62;91.45;101345.56;5094871;28;20016;-81
2023/10/11 08:53:20;;;;;;;16.33;9.20;;;;;;;17.90;91.19;101344.59;5093262;28;20020;-81
2023/10/11 08:55:49;;;;;;;15.95;9.43;;;;;;;17.99;89.59;101343.69;5073423;28;20024;-82
2023/10/11 08:58:23;;;;;;;15.27;9.50;;;;;;;18.02;89.25;101346.06;5096039;28;20494;-82
2023/10/11 09:00:52;;;;;;;14.23;9.40;;;;;;;17.96;89.97;101354.63;5092575;27;20523;-82
2023/10/11 09:03:23;;;;;;;18.00;9.77;;;;;;;17.98;90.69;101352.66;5132985;27;20461;-80
2023/10/11 09:05:58;;;;;;;18.63;10.18;;;;;;;18.05;90.73;101366.25;5097481;28;20434;-80
2023/10/11 09:08:31;;;;;;;20.20;12.10;;;;;;;18.06;90.05;101365.25;5113201;28;20019;-81
2023/10/11 09:11:28;;;;;;;18.15;11.05;;;;;;;18.15;91.29;101359.84;5112006;28;20106;-82
2023/10/11 09:14:09;;;;;;;18.15;12.05;;;;;;;18.21;91.47;101370.91;5112625;28;20031;-80
2023/10/11 09:16:37;;;;;;;23.15;12.73;;;;;;;18.09;90.42;101362.28;5102546;28;20028;-80
2023/10/11 09:19:10;;;;;;;23.25;13.25;;;;;;;18.11;91.37;101352.31;5113831;27;20020;-80
2023/10/11 09:21:38;;;;;;;;;;;;;;;18.25;91.51;101343.81;5113062;28;20023;-81
2023/10/11 09:24:22;;;;;;;22.90;14.38;;;;;;;18.15;92.35;101343.03;5112615;28;19907;-80
2023/10/11 09:27:09;;;;;;;21.90;16.10;;;;;;;18.06;92.40;101355.44;5112471;28;20027;-82
2023/10/11 09:29:38;;;;;;;21.08;14.75;;;;;;;18.04;93.31;101368.06;5113270;28;20107;-83
2023/10/11 09:32:05;;;;;;;21.25;15.52;;;;;;;18.00;93.76;101364.00;5112544;28;20377;-84
2023/10/11 09:34:30;;;;;;;21.33;16.30;;;;;;;18.03;94.02;101365.56;5111560;28;20030;-80
2023/10/11 09:36:56;;;;;;;21.85;15.40;;;;;;;18.02;94.55;101364.72;5120882;27;20023;-81
2023/10/11 09:39:22;;;;;;;21.08;15.25;;;;;;;18.02;94.65;101372.69;5134009;27;20462;-81
2023/10/11 09:41:53;;;;;;;21.90;15.95;;;;;;;18.05;95.81;101380.41;5117392;27;20488;-81
2023/10/11 09:44:28;;;;;;;20.85;15.63;;;;;;;18.07;95.33;101381.09;5096862;28;20044;-81
2023/10/11 09:46:57;;;;;;;20.73;15.75;;;;;;;18.10;95.13;101383.44;5073055;28;20123;-81
2023/10/11 09:49:26;;;;;;;22.65;16.35;;;;;;;18.10;95.79;101372.78;5092262;28;20020;-80
2023/10/11 09:51:52;;;;;;;25.67;15.30;;;;;;;18.10;96.15;101370.13;5091121;28;20024;-80
2023/10/11 09:54:18;;;;;;;23.02;15.57;;;;;;;18.13;96.85;101377.81;5092427;28;20170;-81
2023/10/11 09:57:23;;;;;;;23.92;16.25;;;;;;;18.17;96.20;101376.53;5090103;28;20115;-81
2023/10/11 10:00:18;;;;;;;24.30;17.25;;;;;;;18.10;96.35;101362.13;5064278;27;20034;-81
2023/10/11 10:02:50;;;;;;;20.63;17.50;;;;;;;18.00;96.93;101371.97;5114065;27;20102;-82
2023/10/11 10:05:17;;;;;;;22.45;17.48;;;;;;;18.02;97.67;101375.38;5118079;27;20011;-80
2023/10/11 10:07:45;;;;;;;25.73;18.33;;;;;;;18.00;98.30;101374.66;5111117;28;20023;-80
2023/10/11 10:10:13;;;;;;;27.52;18.83;;;;;;;17.98;98.47;101376.63;5094199;28;20073;-83
2023/10/11 10:12:43;;;;;;;24.90;19.40;;;;;;;17.93;99.75;101373.56;5111754;28;20028;-83
2023/10/11 10:15:14;;;;;;;25.98;18.80;;;;;;;17.96;99.44;101383.91;5110053;28;20034;-79
2023/10/11 10:18:05;;;;;;;26.98;20.73;;;;;;;17.99;99.47;101391.63;5093463;28;20051;-81
2023/10/11 10:20:33;;;;;;;29.10;21.27;;;;;;;17.91;99.46;101396.00;5084887;28;20512;-80
2023/10/11 10:23:32;;;;;;;26.90;21.33;;;;;;;17.91;99.55;101402.16;5111507;28;20030;-80
2023/10/11 10:26:07;;;;;;;29.50;21.63;;;;;;;17.81;100.00;101401.38;5099769;28;20524;-79
2023/10/11 10:28:32;;;;;;;28.60;21.05;;;;;;;17.72;100.00;101389.78;5093466;28;20024;-81
2023/10/11 10:31:17;;;;;;;30.55;21.63;;;;;;;17.72;100.00;101384.47;5101987;27;20041;-80
2023/10/11 10:33:49;;;;;;;29.05;21.17;;;;;;;17.71;100.00;101384.63;5113519;27;20025;-81
2023/10/11 10:36:17;;;;;;;;;;;;;;;17.85;100.00;101384.13;5099840;28;20473;-81
2023/10/11 10:38:58;;;;;;;30.65;21.67;;;;;;;17.86;100.00;101383.13;5111209;28;19995;-81
2023/10/11 10:41:27;;;;;;;30.17;21.55;;;;;;;17.86;100.00;101369.81;5111130;28;20035;-81
2023/10/11 10:44:12;;;;;;;29.33;21.50;;;;;;;17.91;100.00;101391.53;5111093;27;20022;-81
2023/10/11 10:46:51;;;;;;;29.58;21.60;;;;;;;17.90;100.00;101381.00;5101477;28;20489;-80
2023/10/11 10:49:17;;;;;;;30.67;20.85;;;;;;;17.82;100.00;101379.94;5090584;28;20024;-80
2023/10/11 10:51:47;;;;;;;33.00;21.63;;;;;;;17.80;100.00;101381.06;5104468;27;20157;-80
2023/10/11 10:54:13;;;;;;;33.88;21.17;;;;;;;17.75;100.00;101388.66;5112268;27;20107;-80
2023/10/11 10:56:43;;;;;;;31.60;21.02;;;;;;;17.76;100.00;101385.84;5122265;27;20034;-80
2023/10/11 10:59:14;;;;;;;32.47;21.25;;;;;;;17.82;100.00;101387.91;5119916;27;20030;-80
2023/10/11 11:01:40;;;;;;;30.08;21.77;;;;;;;17.85;100.00;101378.81;5104670;27;20031;-80
2023/10/11 11:04:09;;;;;;;28.48;20.73;;;;;;;17.84;100.00;101371.81;5118397;27;20506;-80
2023/10/11 11:06:46;;;;;;;28.20;20.70;;;;;;;17.85;100.00;101378.81;5118784;27;20020;-79
2023/10/11 11:09:15;;;;;;;29.33;20.95;;;;;;;17.83;100.00;101370.97;5118603;27;20092;-80
2023/10/11 11:11:42;;;;;;;30.30;22.17;;;;;;;17.82;100.00;101379.09;5102653;28;20023;-80
2023/10/11 11:14:15;;;;;;;30.35;20.52;;;;;;;17.82;100.00;101374.63;5101712;27;20075;-80
2023/10/11 11:16:44;;;;;;;27.52;20.08;;;;;;;17.79;100.00;101358.94;5124890;27;20153;-80
2023/10/11 11:19:19;;;;;;;30.58;20.60;;;;;;;17.81;100.00;101362.28;5118175;27;20027;-82
2023/10/11 11:21:46;;;;;;;25.83;18.63;;;;;;;17.84;100.00;101354.00;5101439;28;20544;-82
2023/10/11 11:24:17;;;;;;;28.20;19.42;;;;;;;17.91;100.00;101351.59;5089344;28;20102;-82
2023/10/11 11:26:43;;;;;;;29.70;19.77;;;;;;;17.93;100.00;101346.94;5104082;27;20027;-80
2023/10/11 11:29:16;;;;;;;24.58;18.08;;;;;;;17.97;100.00;101353.66;5117733;27;20045;-80
2023/10/11 11:31:52;;;;;;;31.02;18.45;;;;;;;17.94;100.00;101350.44;5122826;27;20155;-82
2023/10/11 11:34:27;;;;;;;28.45;18.35;;;;;;;18.02;100.00;101348.75;5106732;27;20033;-81
2023/10/11 11:37:00;;;;;;;30.42;19.17;;;;;;;18.04;100.00;101336.09;5130108;27;20051;-81
2023/10/11 11:41:54;;;;;;;26.55;19.17;;;;;;;18.04;100.00;101333.44;5119247;28;20031;-80
2023/10/11 11:44:23;;;;;;;32.10;19.30;;;;;;;18.01;100.00;101311.56;5113623;28;20028;-82
2023/10/11 11:46:51;;;;;;;27.42;18.52;;;;;;;18.00;100.00;101308.06;5095565;28;20122;-81
2023/10/11 11:49:22;;;;;;;24.73;17.65;;;;;;;18.06;100.00;101312.00;5128687;28;20116;-81
2023/10/11 11:51:55;;;;;;;24.65;17.92;;;;;;;18.08;100.00;101316.19;5113223;28;20020;-81
2023/10/11 11:54:22;;;;;;;26.38;18.40;;;;;;;18.02;100.00;101300.81;5098439;28;20498;-81
2023/10/11 11:56:54;;;;;;;25.60;17.73;;;;;;;18.04;100.00;101304.16;5119057;28;20026;-81
2023/10/11 11:59:23;;;;;;;27.50;18.20;;;;;;;18.17;100.00;101319.75;5108349;28;20098;-80
2023/10/11 12:01:59;;;;;;;25.90;17.20;;;;;;;18.16;100.00;101296.78;5093274;28;20434;-81
2023/10/11 12:04:34;;;;;;;28.33;17.45;;;;;;;18.23;100.00;101291.66;5126754;28;20476;-81
2023/10/11 12:07:01;;;;;;;25.45;16.48;;;;;;;18.37;100.00;101272.47;5092763;28;20023;-81
2023/10/11 12:09:33;;;;;;;25.20;16.90;;;;;;;18.53;100.00;101277.13;5124309;28;20023;-82
2023/10/11 12:12:04;;;;;;;22.52;16.25;;;;;;;18.64;99.41;101268.91;5122121;28;20436;-80